Time;durP1;ratioP1;P1;durP2;ratioP2;P2;SDS_P1;SDS_P2;PMS_P1;PMS_P2;Temp;Humidity;BMP_temperature;BMP_pressure;BME280_temperature;BME280_humidity;BME280_pressure;Samples;Min_cycle;Max_cycle;Signal;HPM_P1;HPM_P2
2022/05/07 00:01:28;;;;;;;14.60;7.53;;;13.40;99.90;;;;;;5219020;28;20289;-51
2022/05/07 00:03:58;;;;;;;11.73;7.83;;;13.40;99.90;;;;;;5244754;28;20185;-51
2022/05/07 00:06:29;;;;;;;13.27;7.13;;;13.40;99.90;;;;;;5245611;28;20189;-50
2022/05/07 00:08:59;;;;;;;13.73;8.33;;;13.40;99.90;;;;;;5240749;28;20208;-50
2022/05/07 00:11:30;;;;;;;8.37;7.47;;;13.40;99.90;;;;;;5243551;28;20210;-50
2022/05/07 00:14:00;;;;;;;11.87;7.70;;;13.30;99.90;;;;;;5244233;28;21911;-50
2022/05/07 00:19:20;;;;;;;17.10;6.70;;;13.20;99.90;;;;;;5239966;28;20556;-53
2022/05/07 00:21:51;;;;;;;11.23;7.33;;;13.20;99.90;;;;;;5237102;28;20463;-51
2022/05/07 00:24:21;;;;;;;9.40;7.33;;;13.20;99.90;;;;;;5230985;28;20183;-50
2022/05/07 00:26:52;;;;;;;11.90;7.77;;;13.20;99.90;;;;;;5245420;28;20269;-49
2022/05/07 00:29:23;;;;;;;15.20;6.37;;;13.10;99.90;;;;;;5243748;28;20305;-50
2022/05/07 00:31:53;;;;;;;9.80;6.70;;;13.10;99.90;;;;;;5246343;28;20206;-49
2022/05/07 00:34:25;;;;;;;10.20;6.03;;;13.10;99.90;;;;;;5244171;28;20162;-50
2022/05/07 00:36:56;;;;;;;13.03;6.63;;;13.10;99.90;;;;;;5234155;28;20651;-51
2022/05/07 00:39:26;;;;;;;9.27;6.40;;;13.20;99.90;;;;;;5241609;28;20486;-49
2022/05/07 00:42:02;;;;;;;8.53;6.60;;;13.20;99.70;;;;;;5227192;28;20234;-50
2022/05/07 00:44:33;;;;;;;8.10;6.43;;;13.30;99.50;;;;;;5240487;28;20174;-49
2022/05/07 00:47:26;;;;;;;11.47;5.30;;;13.30;99.30;;;;;;5242472;28;20420;-50
2022/05/07 00:52:47;;;;;;;9.17;6.47;;;13.40;99.10;;;;;;5237029;28;21032;-53
2022/05/07 00:55:18;;;;;;;7.17;6.20;;;13.40;98.80;;;;;;5236072;28;20415;-49
2022/05/07 00:57:49;;;;;;;14.70;8.07;;;13.50;98.80;;;;;;5248606;28;20195;-50
2022/05/07 01:00:19;;;;;;;14.47;5.97;;;13.50;99.00;;;;;;5249267;28;20232;-52
2022/05/07 01:02:50;;;;;;;9.67;6.67;;;13.50;98.60;;;;;;5245106;28;20566;-50
2022/05/07 01:05:20;;;;;;;8.67;5.80;;;13.60;98.40;;;;;;5246248;28;20232;-50
2022/05/07 01:07:51;;;;;;;7.60;6.37;;;13.60;98.50;;;;;;5245913;28;20198;-52
2022/05/07 01:10:22;;;;;;;11.73;5.73;;;13.60;97.90;;;;;;5241359;28;20179;-51
2022/05/07 01:12:54;;;;;;;6.60;5.10;;;13.60;97.50;;;;;;5240056;28;20237;-50
2022/05/07 01:15:25;;;;;;;9.87;5.97;;;13.60;97.00;;;;;;5248829;28;20430;-51
2022/05/07 01:17:56;;;;;;;9.27;5.70;;;13.60;96.60;;;;;;5245277;28;20972;-51
2022/05/07 01:20:26;;;;;;;7.17;4.90;;;13.70;96.20;;;;;;5245712;28;20189;-49
2022/05/07 01:22:57;;;;;;;10.10;5.07;;;13.70;96.20;;;;;;5248732;28;20328;-55
2022/05/07 01:25:27;;;;;;;5.60;5.20;;;13.70;96.10;;;;;;5235305;28;20182;-48
2022/05/07 01:27:58;;;;;;;7.60;5.80;;;13.70;96.20;;;;;;5250854;28;20198;-49
2022/05/07 01:30:29;;;;;;;18.83;5.90;;;13.70;96.00;;;;;;5237488;28;20586;-50
2022/05/07 01:32:59;;;;;;;10.03;5.83;;;13.80;96.20;;;;;;5249056;28;20646;-50
2022/05/07 01:35:30;;;;;;;7.00;5.60;;;13.80;96.10;;;;;;5243517;28;20183;-50
2022/05/07 01:38:00;;;;;;;5.93;5.13;;;13.80;96.10;;;;;;5242816;28;20193;-50
2022/05/07 01:40:31;;;;;;;10.80;5.90;;;13.80;96.00;;;;;;5257582;28;20183;-49
2022/05/07 01:43:01;;;;;;;7.20;5.67;;;14.00;95.60;;;;;;5230440;28;20573;-50
2022/05/07 01:45:32;;;;;;;9.37;5.67;;;13.90;95.50;;;;;;5245231;28;20610;-49
2022/05/07 01:48:11;;;;;;;5.03;4.57;;;13.90;95.30;;;;;;5246937;28;20550;-49
2022/05/07 01:50:42;;;;;;;9.90;5.07;;;13.90;95.20;;;;;;5236658;28;20229;-50
2022/05/07 01:53:16;;;;;;;6.77;4.80;;;13.90;95.30;;;;;;5247829;28;20429;-50
2022/05/07 01:55:46;;;;;;;9.50;4.67;;;13.90;95.30;;;;;;5244202;28;20770;-50
2022/05/07 01:58:17;;;;;;;9.20;4.37;;;13.90;95.30;;;;;;5242974;28;20428;-51
2022/05/07 02:00:47;;;;;;;4.97;4.50;;;14.00;95.20;;;;;;5249011;28;20231;-49
2022/05/07 02:03:19;;;;;;;8.77;5.90;;;13.90;95.00;;;;;;5248786;28;20595;-49
2022/05/07 02:05:50;;;;;;;6.00;5.40;;;13.90;94.80;;;;;;5244357;28;20203;-52
2022/05/07 02:08:20;;;;;;;10.13;4.77;;;13.90;94.30;;;;;;5245792;28;22109;-49
2022/05/07 02:10:51;;;;;;;11.37;5.87;;;14.00;94.30;;;;;;5246190;28;20218;-49
2022/05/07 02:13:21;;;;;;;7.23;5.70;;;14.00;94.20;;;;;;5248346;28;20693;-50
2022/05/07 02:15:52;;;;;;;10.93;4.50;;;14.00;94.20;;;;;;5238499;28;20225;-51
2022/05/07 02:18:22;;;;;;;15.20;5.93;;;14.00;93.80;;;;;;5248378;28;20556;-49
2022/05/07 02:20:53;;;;;;;6.27;4.70;;;14.00;93.80;;;;;;5242461;28;20624;-50
2022/05/07 02:23:23;;;;;;;9.37;5.50;;;14.00;93.60;;;;;;5247073;28;20205;-50
2022/05/07 02:25:54;;;;;;;10.03;5.73;;;14.00;93.50;;;;;;5246099;28;20186;-50
2022/05/07 02:28:24;;;;;;;8.70;5.70;;;14.00;93.60;;;;;;5235690;28;20858;-49
2022/05/07 02:30:55;;;;;;;6.83;3.93;;;14.00;93.70;;;;;;5243078;28;20203;-51
2022/05/07 02:33:25;;;;;;;5.53;3.70;;;14.00;93.60;;;;;;5238344;28;20179;-49
2022/05/07 02:35:56;;;;;;;5.67;3.30;;;14.00;93.40;;;;;;5236315;28;20233;-50
2022/05/07 02:38:26;;;;;;;2.80;2.60;;;14.00;93.00;;;;;;5240307;28;20203;-50
2022/05/07 02:43:46;;;;;;;3.00;2.67;;;14.10;92.70;;;;;;5239010;28;20606;-50
2022/05/07 02:46:17;;;;;;;4.57;2.63;;;14.00;92.30;;;;;;5247995;28;20519;-50
2022/05/07 02:48:48;;;;;;;3.20;3.00;;;14.10;92.50;;;;;;5244241;28;20619;-49
2022/05/07 02:51:18;;;;;;;3.27;3.07;;;14.20;91.80;;;;;;5241958;28;20221;-50
2022/05/07 02:53:49;;;;;;;2.90;2.70;;;14.20;91.60;;;;;;5244334;28;20477;-50
2022/05/07 02:56:19;;;;;;;3.63;2.53;;;14.20;91.70;;;;;;5247045;28;20182;-50
2022/05/07 02:58:50;;;;;;;2.90;2.77;;;14.20;91.80;;;;;;5245354;28;20183;-50
2022/05/07 03:01:20;;;;;;;2.80;2.33;;;14.20;92.00;;;;;;5232693;28;20213;-49
2022/05/07 03:03:51;;;;;;;3.17;2.40;;;14.10;92.10;;;;;;5247581;28;20265;-49
2022/05/07 03:06:21;;;;;;;3.13;2.93;;;14.10;92.10;;;;;;5240180;28;20591;-49
2022/05/07 03:08:52;;;;;;;3.37;2.47;;;14.10;92.10;;;;;;5248013;28;20264;-48
2022/05/07 03:11:23;;;;;;;2.47;2.37;;;14.10;92.10;;;;;;5232198;28;20225;-51
2022/05/07 03:13:53;;;;;;;3.57;2.87;;;14.00;92.10;;;;;;5245189;28;20251;-50
2022/05/07 03:16:24;;;;;;;5.43;3.30;;;14.00;92.10;;;;;;5247656;28;20186;-50
2022/05/07 03:18:54;;;;;;;2.40;2.30;;;14.00;92.30;;;;;;5243236;28;20198;-48
2022/05/07 03:21:25;;;;;;;3.17;2.97;;;14.00;92.60;;;;;;5256240;23;20716;-56
2022/05/07 03:23:55;;;;;;;3.60;3.33;;;13.90;92.80;;;;;;5221068;28;20179;-56
2022/05/07 03:26:26;;;;;;;3.00;2.80;;;13.80;93.00;;;;;;5225402;28;20175;-57
2022/05/07 03:28:56;;;;;;;3.10;2.90;;;13.80;93.30;;;;;;5226117;28;20211;-55
2022/05/07 03:31:27;;;;;;;3.60;3.40;;;13.70;93.50;;;;;;5220475;28;20195;-56
2022/05/07 03:33:57;;;;;;;3.60;3.43;;;13.70;93.70;;;;;;5213637;28;20296;-56
2022/05/07 03:36:28;;;;;;;3.13;2.93;;;13.60;93.90;;;;;;5216844;28;20789;-56
2022/05/07 03:38:58;;;;;;;3.47;3.17;;;13.60;94.40;;;;;;5224375;28;20182;-56
2022/05/07 03:41:29;;;;;;;5.00;3.33;;;13.50;94.50;;;;;;5225934;28;20198;-57
2022/05/07 03:43:59;;;;;;;5.10;3.53;;;13.50;94.70;;;;;;5223162;28;20656;-56
2022/05/07 03:46:30;;;;;;;3.70;3.40;;;13.40;94.90;;;;;;5221598;28;20595;-57
2022/05/07 03:49:01;;;;;;;3.80;3.27;;;13.40;95.20;;;;;;5222105;28;20699;-55
2022/05/07 03:53:29;;;;;;;4.07;3.73;;;13.30;95.60;;;;;;5221701;28;20560;-56
2022/05/07 03:54:22;;;;;;;4.80;3.83;;;13.30;96.10;;;;;;5208126;28;20179;-57
2022/05/07 03:56:52;;;;;;;4.17;3.77;;;13.30;96.60;;;;;;5218408;28;20425;-57
2022/05/07 03:59:23;;;;;;;7.90;3.40;;;13.20;97.10;;;;;;5207459;28;20191;-57
2022/05/07 04:01:53;;;;;;;6.50;4.30;;;13.20;97.40;;;;;;5227696;28;20195;-56
2022/05/07 04:04:24;;;;;;;9.93;3.33;;;13.20;97.70;;;;;;5221581;28;20183;-56
2022/05/07 04:06:54;;;;;;;4.17;3.70;;;13.30;97.90;;;;;;5222509;28;20274;-56
2022/05/07 04:09:25;;;;;;;3.43;3.07;;;13.40;97.70;;;;;;5223880;28;20214;-57
2022/05/07 04:11:55;;;;;;;4.30;3.90;;;13.50;97.60;;;;;;5227104;28;20206;-55
2022/05/07 04:14:26;;;;;;;3.50;3.20;;;13.60;97.40;;;;;;5221374;28;20604;-57
2022/05/07 04:16:56;;;;;;;4.00;3.70;;;13.60;97.20;;;;;;5222553;28;20198;-56
2022/05/07 04:19:27;;;;;;;4.00;3.10;;;13.70;97.00;;;;;;5219910;28;20191;-55
2022/05/07 04:21:57;;;;;;;3.33;3.03;;;13.80;96.50;;;;;;5221003;28;20226;-57
2022/05/07 04:24:28;;;;;;;3.87;3.60;;;13.80;96.20;;;;;;5207140;28;20815;-55
2022/05/07 04:27:00;;;;;;;3.40;3.20;;;13.90;96.00;;;;;;5221760;28;20222;-57
2022/05/07 04:29:30;;;;;;;4.40;4.00;;;14.00;95.90;;;;;;5220005;28;20550;-56
2022/05/07 04:32:02;;;;;;;4.43;3.70;;;14.10;95.60;;;;;;5226240;28;20901;-57
2022/05/07 04:34:33;;;;;;;3.53;3.30;;;14.20;95.60;;;;;;5233078;28;20191;-56
2022/05/07 04:37:03;;;;;;;7.03;3.77;;;14.20;95.70;;;;;;5220479;28;20862;-56
2022/05/07 04:39:34;;;;;;;4.93;4.43;;;14.30;95.50;;;;;;5224106;28;20449;-57
2022/05/07 04:42:05;;;;;;;6.53;3.20;;;14.40;95.30;;;;;;5229150;28;20230;-57
2022/05/07 04:44:35;;;;;;;3.80;3.50;;;14.60;95.30;;;;;;5227179;28;20187;-56
2022/05/07 04:47:06;;;;;;;4.07;3.67;;;14.90;94.90;;;;;;5233433;28;20182;-56
2022/05/07 04:49:36;;;;;;;4.30;2.73;;;15.30;93.30;;;;;;5238107;28;20214;-56
2022/05/07 04:52:07;;;;;;;4.50;4.20;;;15.50;92.30;;;;;;5235504;28;20285;-56
2022/05/07 04:54:38;;;;;;;7.63;3.60;;;15.70;91.30;;;;;;5224525;28;20179;-56
2022/05/07 04:57:08;;;;;;;3.50;3.30;;;15.90;89.80;;;;;;5226261;28;20184;-57
2022/05/07 04:59:39;;;;;;;4.40;3.43;;;15.70;90.00;;;;;;5229586;28;20186;-55
2022/05/07 05:02:09;;;;;;;3.20;3.00;;;15.80;90.60;;;;;;5212481;28;20307;-56
2022/05/07 05:04:40;;;;;;;3.93;3.37;;;16.40;90.80;;;;;;5225505;28;20190;-56
2022/05/07 05:07:10;;;;;;;3.80;3.50;;;17.20;83.80;;;;;;5229192;28;20187;-57
2022/05/07 05:09:41;;;;;;;3.70;3.40;;;17.60;79.10;;;;;;5223089;28;20217;-57
2022/05/07 05:12:11;;;;;;;4.63;3.97;;;17.80;77.90;;;;;;5218316;28;20199;-57
2022/05/07 05:17:33;;;;;;;7.30;3.80;;;19.40;65.20;;;;;;5228261;28;20523;-57
2022/05/07 05:20:05;;;;;;;8.50;3.43;;;21.00;56.00;;;;;;5222472;28;20461;-58
2022/05/07 05:22:35;;;;;;;5.87;4.20;;;22.50;52.00;;;;;;5220858;28;20872;-56
2022/05/07 05:25:06;;;;;;;4.00;3.70;;;24.00;47.00;;;;;;5229506;28;20433;-56
2022/05/07 05:27:37;;;;;;;5.63;2.93;;;25.60;43.60;;;;;;5229747;28;20186;-58
2022/05/07 05:30:08;;;;;;;6.37;3.70;;;27.10;40.40;;;;;;5224276;28;20175;-57
2022/05/07 05:32:38;;;;;;;3.53;3.13;;;28.10;36.40;;;;;;5216142;28;20215;-57
2022/05/07 05:35:09;;;;;;;2.77;2.50;;;29.00;34.80;;;;;;5230134;28;20429;-57
2022/05/07 05:37:39;;;;;;;3.43;3.20;;;29.60;33.70;;;;;;5220168;28;20184;-57
2022/05/07 05:40:10;;;;;;;2.83;2.23;;;30.10;31.70;;;;;;5219347;28;20221;-58
2022/05/07 05:42:41;;;;;;;2.73;2.30;;;30.40;31.20;;;;;;5219483;28;20203;-58
2022/05/07 05:45:11;;;;;;;2.80;2.57;;;30.60;30.50;;;;;;5242373;28;20187;-56
2022/05/07 05:47:42;;;;;;;3.40;2.80;;;30.90;30.20;;;;;;5230582;28;20198;-57
2022/05/07 05:50:12;;;;;;;2.30;2.20;;;30.90;29.70;;;;;;5227263;28;20198;-58
2022/05/07 05:52:43;;;;;;;2.50;2.30;;;30.50;30.00;;;;;;5221643;28;20774;-58
2022/05/07 05:55:13;;;;;;;2.30;2.00;;;30.40;30.30;;;;;;5218758;28;20182;-57
2022/05/07 05:57:44;;;;;;;3.83;2.80;;;30.60;30.00;;;;;;5219240;28;20612;-57
2022/05/07 06:00:15;;;;;;;2.90;2.70;;;30.20;30.00;;;;;;5226442;28;21357;-57
2022/05/07 06:02:46;;;;;;;5.90;3.20;;;30.80;29.80;;;;;;5225014;28;20282;-58
2022/05/07 06:05:17;;;;;;;2.40;2.30;;;31.80;28.70;;;;;;5216219;28;21019;-58
2022/05/07 06:07:47;;;;;;;2.23;2.00;;;32.70;28.20;;;;;;5226110;28;20332;-58
2022/05/07 06:10:18;;;;;;;5.43;2.50;;;33.30;27.30;;;;;;5224589;28;20588;-57
2022/05/07 06:12:49;;;;;;;2.83;2.10;;;33.00;27.30;;;;;;5232456;28;20203;-57
2022/05/07 06:15:19;;;;;;;3.80;2.73;;;33.30;26.90;;;;;;5216497;28;20249;-58
2022/05/07 06:17:50;;;;;;;3.57;2.90;;;33.20;26.60;;;;;;5225840;28;20186;-57
2022/05/07 06:20:20;;;;;;;2.50;2.40;;;33.50;26.50;;;;;;5219344;28;20182;-58
2022/05/07 06:22:51;;;;;;;2.90;2.63;;;33.40;26.30;;;;;;5214747;28;20225;-58
2022/05/07 06:28:11;;;;;;;2.17;2.07;;;33.70;25.60;;;;;;5212933;28;20202;-58
2022/05/07 06:30:41;;;;;;;5.40;2.20;;;33.50;26.10;;;;;;5219999;28;20533;-58
2022/05/07 06:33:12;;;;;;;2.10;1.90;;;34.30;25.70;;;;;;5217347;28;20218;-58
2022/05/07 06:35:42;;;;;;;2.27;2.20;;;34.80;25.10;;;;;;5224226;28;20186;-58
2022/05/07 06:38:13;;;;;;;4.10;3.55;;;35.20;24.80;;;;;;5226519;28;20212;-58
2022/05/07 06:40:44;;;;;;;2.28;2.17;;;35.60;24.20;;;;;;5222191;28;20193;-58
2022/05/07 06:43:14;;;;;;;2.37;2.27;;;35.00;23.70;;;;;;5216988;28;20207;-58
2022/05/07 06:45:45;;;;;;;3.15;2.85;;;34.40;24.80;;;;;;5222286;28;20175;-58
2022/05/07 06:48:15;;;;;;;4.30;2.37;;;33.20;25.50;;;;;;5223885;28;20489;-57
2022/05/07 06:50:46;;;;;;;3.70;2.20;;;33.00;26.10;;;;;;5227599;28;20182;-58
2022/05/07 06:53:16;;;;;;;4.67;2.97;;;33.40;25.90;;;;;;5225374;28;20220;-58
2022/05/07 06:55:56;;;;;;;2.30;2.20;;;33.50;25.70;;;;;;5224709;28;20626;-58
2022/05/07 06:58:30;;;;;;;2.67;2.17;;;33.90;25.70;;;;;;5227430;28;20531;-58
2022/05/07 07:01:02;;;;;;;2.90;2.30;;;33.90;25.40;;;;;;5223919;28;20177;-58
2022/05/07 07:03:33;;;;;;;2.37;2.27;;;34.40;25.10;;;;;;5224126;28;20674;-58
2022/05/07 07:06:03;;;;;;;2.58;2.38;;;35.00;24.50;;;;;;5214347;28;20185;-58
2022/05/07 07:08:34;;;;;;;3.17;2.87;;;34.40;23.30;;;;;;5222874;28;20216;-58
2022/05/07 07:11:05;;;;;;;3.00;2.70;;;34.50;24.40;;;;;;5213214;28;20198;-57
2022/05/07 07:13:35;;;;;;;2.43;2.27;;;34.30;24.40;;;;;;5222127;28;20214;-58
2022/05/07 07:16:06;;;;;;;2.50;2.40;;;32.40;25.30;;;;;;5217325;28;20194;-57
2022/05/07 07:18:37;;;;;;;5.57;3.27;;;31.30;27.10;;;;;;5223992;28;20270;-57
2022/05/07 07:21:07;;;;;;;6.83;3.20;;;30.50;27.20;;;;;;5224504;28;20194;-58
2022/05/07 07:23:38;;;;;;;4.37;2.77;;;29.80;27.80;;;;;;5226434;28;20592;-58
2022/05/07 07:26:08;;;;;;;4.27;2.83;;;29.70;27.90;;;;;;5223032;28;20270;-58
2022/05/07 07:28:39;;;;;;;4.23;3.27;;;30.80;27.50;;;;;;5220130;28;20210;-58
2022/05/07 07:31:10;;;;;;;3.47;2.87;;;32.60;25.90;;;;;;5213382;28;20211;-58
2022/05/07 07:33:41;;;;;;;4.23;3.30;;;33.00;25.30;;;;;;5220808;28;20190;-58
2022/05/07 07:36:12;;;;;;;6.50;3.57;;;32.30;25.40;;;;;;5221186;28;20266;-58
2022/05/07 07:38:42;;;;;;;3.60;3.30;;;31.50;26.00;;;;;;5225951;28;20273;-58
2022/05/07 07:41:13;;;;;;;4.07;3.43;;;29.70;27.60;;;;;;5225769;28;20206;-58
2022/05/07 07:43:43;;;;;;;4.77;2.83;;;28.70;28.60;;;;;;5223547;28;20684;-58
2022/05/07 07:49:03;;;;;;;3.00;2.90;;;28.40;29.90;;;;;;5219428;28;20278;-57
2022/05/07 07:51:33;;;;;;;6.37;3.03;;;28.90;29.10;;;;;;5220899;28;20485;-58
2022/05/07 07:54:04;;;;;;;5.67;3.60;;;27.80;29.60;;;;;;5221242;28;20179;-58
2022/05/07 07:56:35;;;;;;;4.80;3.20;;;27.60;30.20;;;;;;5225217;28;20257;-57
2022/05/07 07:59:06;;;;;;;6.97;4.00;;;28.00;30.00;;;;;;5221875;28;20430;-56
2022/05/07 08:01:36;;;;;;;3.90;2.90;;;28.10;30.00;;;;;;5225182;28;20673;-58
2022/05/07 08:04:07;;;;;;;3.67;3.37;;;28.90;29.70;;;;;;5218686;28;20181;-57
2022/05/07 08:06:38;;;;;;;3.27;3.07;;;30.80;27.30;;;;;;5209030;28;20198;-60
2022/05/07 08:11:59;;;;;;;4.87;3.40;;;33.20;25.10;;;;;;5212449;28;20575;-58
2022/05/07 08:14:29;;;;;;;5.70;3.43;;;32.60;25.20;;;;;;5215895;28;20925;-58
2022/05/07 08:17:00;;;;;;;7.23;3.53;;;32.00;24.90;;;;;;5215333;28;20523;-57
2022/05/07 08:19:32;;;;;;;6.80;3.57;;;31.70;26.00;;;;;;5226753;28;20182;-58
2022/05/07 08:22:02;;;;;;;7.53;4.60;;;32.40;25.80;;;;;;5240613;28;20221;-59
2022/05/07 08:24:33;;;;;;;4.60;3.90;;;33.00;24.60;;;;;;5226358;28;20512;-59
2022/05/07 08:27:05;;;;;;;6.40;3.57;;;33.40;24.30;;;;;;5218683;28;20182;-59
2022/05/07 08:29:35;;;;;;;4.13;3.47;;;33.40;24.40;;;;;;5215649;28;20244;-58
2022/05/07 08:32:07;;;;;;;5.77;3.83;;;33.40;24.40;;;;;;5218413;28;20226;-58
2022/05/07 08:34:38;;;;;;;5.90;3.63;;;32.50;24.60;;;;;;5215918;28;20185;-58
2022/05/07 08:37:09;;;;;;;5.60;3.70;;;32.60;25.20;;;;;;5217925;28;20233;-58
2022/05/07 08:39:40;;;;;;;4.90;3.63;;;32.10;25.30;;;;;;5221692;28;20182;-59
2022/05/07 08:42:11;;;;;;;4.33;3.30;;;30.80;26.00;;;;;;5216611;28;20682;-57
2022/05/07 08:44:41;;;;;;;6.43;4.03;;;30.20;27.20;;;;;;5215782;28;20242;-60
2022/05/07 08:47:13;;;;;;;6.00;4.37;;;30.30;27.10;;;;;;5221583;28;20520;-59
2022/05/07 08:49:44;;;;;;;9.50;4.07;;;29.60;27.50;;;;;;5222383;28;20259;-58
2022/05/07 08:52:16;;;;;;;5.70;4.80;;;28.50;28.60;;;;;;5219753;28;20454;-57
2022/05/07 08:54:46;;;;;;;5.23;4.20;;;27.40;29.30;;;;;;5224857;28;20206;-58
2022/05/07 08:57:17;;;;;;;13.17;6.10;;;26.40;30.50;;;;;;5225633;28;20504;-57
2022/05/07 08:59:51;;;;;;;11.70;5.20;;;25.90;31.50;;;;;;5224000;28;20197;-59
2022/05/07 09:02:22;;;;;;;11.80;4.57;;;25.90;31.60;;;;;;5224842;28;20210;-57
2022/05/07 09:04:59;;;;;;;10.40;5.53;;;25.90;32.20;;;;;;5220165;28;20457;-57
2022/05/07 09:07:29;;;;;;;12.20;5.27;;;25.90;31.90;;;;;;5217991;28;20187;-57
2022/05/07 09:10:00;;;;;;;10.57;4.97;;;25.70;32.20;;;;;;5218474;28;20564;-58
2022/05/07 09:12:30;;;;;;;10.00;5.50;;;25.10;32.70;;;;;;5223297;28;20218;-57
2022/05/07 09:15:05;;;;;;;9.00;4.10;;;24.30;33.80;;;;;;5217844;28;20175;-57
2022/05/07 09:17:37;;;;;;;9.07;4.67;;;24.00;34.60;;;;;;5223854;28;20202;-57
2022/05/07 09:20:13;;;;;;;8.77;4.40;;;23.90;35.20;;;;;;5226651;28;20434;-60
2022/05/07 09:22:55;;;;;;;9.60;4.63;;;24.00;35.00;;;;;;5228765;28;20483;-58
2022/05/07 09:25:27;;;;;;;4.63;4.23;;;23.90;35.00;;;;;;5226903;28;20451;-57
2022/05/07 09:27:57;;;;;;;9.33;4.43;;;23.80;35.00;;;;;;5213111;28;20446;-56
2022/05/07 09:30:32;;;;;;;6.90;4.63;;;24.00;35.40;;;;;;5214995;28;20686;-58
2022/05/07 09:33:03;;;;;;;8.47;5.97;;;23.70;35.10;;;;;;5214852;28;20214;-56
2022/05/07 09:35:49;;;;;;;8.53;5.30;;;23.60;35.70;;;;;;5218376;28;20495;-56
2022/05/07 09:38:26;;;;;;;7.83;4.53;;;23.60;36.20;;;;;;5213785;28;20199;-57
2022/05/07 09:40:56;;;;;;;7.90;4.57;;;23.70;36.10;;;;;;5217922;28;20460;-57
2022/05/07 09:43:29;;;;;;;6.50;4.57;;;23.60;36.30;;;;;;5227563;28;20495;-55
2022/05/07 09:46:00;;;;;;;14.20;4.70;;;23.80;36.60;;;;;;5222332;28;20647;-57
2022/05/07 09:48:31;;;;;;;8.47;4.30;;;23.70;36.40;;;;;;5219530;28;20569;-60
2022/05/07 09:51:02;;;;;;;9.40;4.30;;;23.50;37.30;;;;;;5210347;28;20661;-55
2022/05/07 09:59:11;;;;;;;5.43;4.30;;;23.10;38.50;;;;;;5218663;28;20441;-56
2022/05/07 10:01:52;;;;;;;4.37;3.83;;;22.80;37.70;;;;;;5219827;28;20457;-57
2022/05/07 10:04:48;;;;;;;13.13;4.03;;;22.60;38.30;;;;;;5217911;28;20191;-57
2022/05/07 10:07:31;;;;;;;4.13;3.50;;;22.60;38.60;;;;;;5221147;28;20433;-56
2022/05/07 10:10:25;;;;;;;5.33;4.63;;;23.10;38.30;;;;;;5213756;28;20616;-57
2022/05/07 10:13:01;;;;;;;8.13;3.37;;;23.50;37.40;;;;;;5218731;28;20970;-56
2022/05/07 10:15:32;;;;;;;41.53;16.57;;;23.70;37.40;;;;;;5218650;28;20438;-56
2022/05/07 10:18:07;;;;;;;19.43;9.10;;;23.70;37.20;;;;;;5215079;28;20430;-56
2022/05/07 10:20:40;;;;;;;6.10;4.23;;;23.60;37.60;;;;;;5214099;28;20510;-56
2022/05/07 10:23:13;;;;;;;7.90;4.87;;;23.50;37.70;;;;;;5217603;28;20517;-55
2022/05/07 10:25:56;;;;;;;4.67;3.80;;;23.50;38.40;;;;;;5219114;28;20982;-57
2022/05/07 10:28:38;;;;;;;9.40;4.53;;;23.50;38.20;;;;;;5216912;28;20937;-55
2022/05/07 10:31:21;;;;;;;3.90;3.60;;;23.50;37.60;;;;;;5214656;28;20429;-57
2022/05/07 10:33:52;;;;;;;4.67;3.17;;;23.90;37.50;;;;;;5218966;28;20425;-57
2022/05/07 10:36:35;;;;;;;3.40;3.10;;;24.30;36.50;;;;;;5224452;28;20479;-56
2022/05/07 10:39:09;;;;;;;4.43;3.37;;;24.50;35.70;;;;;;5220368;28;20546;-57
2022/05/07 10:41:47;;;;;;;7.73;5.00;;;24.60;35.90;;;;;;5218099;28;20528;-55
2022/05/07 10:44:30;;;;;;;10.17;4.40;;;24.70;36.20;;;;;;5220629;28;20469;-57
2022/05/07 10:47:12;;;;;;;4.87;4.30;;;24.30;36.50;;;;;;5215510;28;20456;-57
2022/05/07 10:50:11;;;;;;;8.43;4.80;;;23.80;37.40;;;;;;5218200;28;20469;-56
2022/05/07 10:52:53;;;;;;;4.80;3.73;;;23.50;38.20;;;;;;5214188;28;20635;-55
2022/05/07 10:55:27;;;;;;;22.20;9.73;;;23.40;38.30;;;;;;5220703;28;25074;-55
2022/05/07 10:57:57;;;;;;;12.87;7.60;;;23.30;38.20;;;;;;5224844;28;20571;-57
2022/05/07 11:00:28;;;;;;;7.00;5.23;;;23.30;38.40;;;;;;5220904;28;20512;-55
2022/05/07 11:02:58;;;;;;;7.17;3.70;;;23.40;38.60;;;;;;5211303;28;20195;-56
2022/05/07 11:05:33;;;;;;;3.50;3.20;;;23.80;38.60;;;;;;5223531;28;20198;-57
2022/05/07 11:08:05;;;;;;;4.43;4.00;;;24.10;37.80;;;;;;5219508;28;20175;-55
2022/05/07 11:10:37;;;;;;;3.60;3.40;;;24.20;36.90;;;;;;5199595;28;20453;-56
2022/05/07 11:13:12;;;;;;;3.20;3.10;;;23.90;37.10;;;;;;5205267;28;20465;-57
2022/05/07 11:15:43;;;;;;;8.77;3.03;;;24.00;37.70;;;;;;5216308;28;20524;-56
2022/05/07 11:18:15;;;;;;;3.37;3.13;;;24.40;37.80;;;;;;5216080;28;20480;-58
2022/05/07 11:20:46;;;;;;;6.47;3.33;;;24.70;37.00;;;;;;5216414;28;20183;-58
2022/05/07 11:23:17;;;;;;;8.63;3.90;;;25.10;36.60;;;;;;5216396;28;20489;-57
2022/05/07 11:25:48;;;;;;;3.60;3.40;;;24.90;36.60;;;;;;5214413;28;20179;-56
2022/05/07 11:28:18;;;;;;;3.80;3.50;;;24.80;37.20;;;;;;5207411;28;20460;-57
2022/05/07 11:30:50;;;;;;;10.20;3.30;;;24.90;37.00;;;;;;5217457;28;20190;-56
2022/05/07 11:33:25;;;;;;;4.07;3.73;;;24.90;37.10;;;;;;5216592;28;20197;-58
2022/05/07 11:36:02;;;;;;;2.77;2.60;;;24.90;36.90;;;;;;5219016;28;20433;-57
2022/05/07 11:38:34;;;;;;;6.13;4.30;;;24.70;37.40;;;;;;5215970;28;20976;-56
2022/05/07 11:41:14;;;;;;;3.77;3.57;;;24.00;37.60;;;;;;5218975;28;20433;-58
2022/05/07 11:46:55;;;;;;;9.60;4.73;;;23.20;39.70;;;;;;5214421;28;21007;-56
2022/05/07 11:49:30;;;;;;;20.73;8.60;;;22.80;40.40;;;;;;5214602;28;20848;-58
2022/05/07 11:52:05;;;;;;;8.03;6.00;;;22.90;40.60;;;;;;5221850;28;21127;-58
2022/05/07 11:54:52;;;;;;;5.03;4.20;;;22.90;40.40;;;;;;5223121;28;20784;-57
2022/05/07 11:57:35;;;;;;;6.93;4.33;;;23.00;40.50;;;;;;5217657;28;20436;-56
2022/05/07 12:00:21;;;;;;;7.63;4.23;;;23.00;40.10;;;;;;5215489;28;20454;-59
2022/05/07 12:02:56;;;;;;;5.13;3.57;;;23.20;40.10;;;;;;5226923;28;20624;-58
2022/05/07 12:05:38;;;;;;;7.33;3.83;;;23.40;39.70;;;;;;5216806;28;20444;-55
2022/05/07 12:08:20;;;;;;;16.20;9.73;;;23.60;39.70;;;;;;5213842;28;20473;-55
2022/05/07 12:10:53;;;;;;;25.17;12.87;;;23.80;38.90;;;;;;5208317;28;20433;-58
2022/05/07 12:13:24;;;;;;;14.43;10.23;;;23.80;38.90;;;;;;5213420;28;20453;-57
2022/05/07 12:18:49;;;;;;;5.43;3.90;;;24.10;38.70;;;;;;5214874;28;20564;-56
2022/05/07 12:29:48;;;;;;;3.40;3.20;;;24.20;38.40;;;;;;5204391;28;21231;-57
2022/05/07 12:29:51;;;;;;;7.70;6.67;;;23.60;40.40;;;;;;5213799;28;20556;-58
2022/05/07 12:32:24;;;;;;;10.07;5.93;;;23.80;40.70;;;;;;5213424;28;20449;-57
2022/05/07 12:34:55;;;;;;;4.60;4.13;;;23.90;41.00;;;;;;5211790;28;20914;-60
2022/05/07 12:37:25;;;;;;;5.47;3.90;;;24.00;40.10;;;;;;5209825;28;20500;-56
2022/05/07 12:39:57;;;;;;;5.90;5.03;;;24.10;40.20;;;;;;5214353;28;20485;-58
2022/05/07 12:42:29;;;;;;;10.10;6.30;;;24.10;40.00;;;;;;5220260;28;20202;-57
2022/05/07 12:45:00;;;;;;;15.70;9.27;;;24.20;39.70;;;;;;5217057;28;20928;-55
2022/05/07 12:47:31;;;;;;;4.60;3.90;;;24.00;40.50;;;;;;5217160;28;20449;-57
2022/05/07 12:50:01;;;;;;;6.13;4.87;;;24.00;40.50;;;;;;5220636;28;20809;-57
2022/05/07 12:52:32;;;;;;;4.03;3.50;;;24.00;40.40;;;;;;5222555;28;20867;-58
2022/05/07 12:55:03;;;;;;;4.93;3.30;;;24.10;40.20;;;;;;5221297;28;20183;-57
2022/05/07 12:57:33;;;;;;;7.50;4.23;;;24.20;40.00;;;;;;5215901;28;20195;-58
2022/05/07 13:00:04;;;;;;;4.20;3.90;;;24.00;40.00;;;;;;5218391;28;20191;-57
2022/05/07 13:02:35;;;;;;;6.97;4.93;;;23.90;40.50;;;;;;5219140;28;20306;-55
2022/05/07 13:05:06;;;;;;;5.80;3.10;;;23.70;40.40;;;;;;5217698;28;20439;-57
2022/05/07 13:07:37;;;;;;;5.70;3.90;;;23.60;40.50;;;;;;5220809;28;20198;-57
2022/05/07 13:10:07;;;;;;;17.87;8.40;;;23.40;40.50;;;;;;5217733;28;20460;-57
2022/05/07 13:12:39;;;;;;;3.87;3.40;;;23.20;41.10;;;;;;5218146;28;20218;-58
2022/05/07 13:15:10;;;;;;;4.47;4.03;;;23.30;40.90;;;;;;5223681;28;20594;-55
2022/05/07 13:17:40;;;;;;;3.73;3.53;;;23.40;40.90;;;;;;5235748;28;20429;-57
2022/05/07 13:20:11;;;;;;;6.53;3.50;;;23.40;41.30;;;;;;5219602;28;20188;-56
2022/05/07 13:22:42;;;;;;;3.53;3.23;;;23.60;41.30;;;;;;5213879;28;20729;-56
2022/05/07 13:25:12;;;;;;;3.40;3.10;;;23.60;40.80;;;;;;5199793;28;20194;-55
2022/05/07 13:27:44;;;;;;;4.63;4.13;;;23.70;41.20;;;;;;5216276;28;20657;-62
2022/05/07 13:30:16;;;;;;;3.80;3.50;;;23.80;41.30;;;;;;5218106;28;20203;-55
2022/05/07 13:32:47;;;;;;;6.90;3.50;;;23.90;41.40;;;;;;5228364;28;20465;-58
2022/05/07 13:35:18;;;;;;;4.27;3.70;;;24.00;41.40;;;;;;5225652;28;20445;-59
2022/05/07 13:37:48;;;;;;;10.20;3.33;;;23.90;41.40;;;;;;5227119;28;20179;-58
2022/05/07 13:40:19;;;;;;;6.83;2.80;;;23.70;42.10;;;;;;5229818;28;20436;-57
2022/05/07 13:42:50;;;;;;;4.40;3.23;;;23.60;42.40;;;;;;5226032;28;20241;-57
2022/05/07 13:45:21;;;;;;;13.63;3.70;;;23.70;42.60;;;;;;5224384;28;20206;-59
2022/05/07 13:47:51;;;;;;;43.47;18.90;;;23.60;41.70;;;;;;5223095;28;20201;-56